sensor_id;sensor_type;location;lat;lon;timestamp;pressure;altitude;pressure_sealevel;temperature;humidity
7962;BME280;4026;43.652;24.906;2023-03-04T00:00:57;99260.84;;;4.67;100.00
7962;BME280;4026;43.652;24.906;2023-03-04T00:03:24;99262.69;;;4.63;100.00
7962;BME280;4026;43.652;24.906;2023-03-04T00:05:51;99264.19;;;4.67;100.00
7962;BME280;4026;43.652;24.906;2023-03-04T00:08:17;99260.66;;;4.71;100.00
7962;BME280;4026;43.652;24.906;2023-03-04T00:10:45;99269.78;;;4.74;100.00
7962;BME280;4026;43.652;24.906;2023-03-04T00:13:12;99267.81;;;4.81;100.00
7962;BME280;4026;43.652;24.906;2023-03-04T00:15:39;99268.84;;;4.76;100.00
7962;BME280;4026;43.652;24.906;2023-03-04T00:18:07;99273.16;;;4.74;100.00
7962;BME280;4026;43.652;24.906;2023-03-04T00:20:34;99272.41;;;4.72;100.00
7962;BME280;4026;43.652;24.906;2023-03-04T00:23:00;99272.00;;;4.82;100.00
7962;BME280;4026;43.652;24.906;2023-03-04T00:25:27;99273.63;;;4.83;100.00
7962;BME280;4026;43.652;24.906;2023-03-04T00:27:54;99271.03;;;4.84;100.00
7962;BME280;4026;43.652;24.906;2023-03-04T00:30:22;99267.06;;;4.79;100.00
7962;BME280;4026;43.652;24.906;2023-03-04T00:32:49;99267.69;;;4.84;100.00
7962;BME280;4026;43.652;24.906;2023-03-04T00:35:17;99258.72;;;4.76;100.00
7962;BME280;4026;43.652;24.906;2023-03-04T00:37:44;99267.22;;;4.75;100.00
7962;BME280;4026;43.652;24.906;2023-03-04T00:40:12;99260.38;;;4.78;100.00
7962;BME280;4026;43.652;24.906;2023-03-04T00:42:39;99263.63;;;4.80;100.00
7962;BME280;4026;43.652;24.906;2023-03-04T00:45:07;99260.28;;;4.79;100.00
7962;BME280;4026;43.652;24.906;2023-03-04T00:47:34;99256.94;;;4.79;100.00
7962;BME280;4026;43.652;24.906;2023-03-04T00:50:01;99251.72;;;4.82;100.00
7962;BME280;4026;43.652;24.906;2023-03-04T00:52:29;99255.63;;;4.89;100.00
7962;BME280;4026;43.652;24.906;2023-03-04T00:54:56;99252.50;;;4.84;100.00
7962;BME280;4026;43.652;24.906;2023-03-04T00:57:23;99249.28;;;4.80;100.00
7962;BME280;4026;43.652;24.906;2023-03-04T00:59:49;99242.22;;;4.87;100.00
7962;BME280;4026;43.652;24.906;2023-03-04T01:02:16;99246.09;;;4.94;100.00
7962;BME280;4026;43.652;24.906;2023-03-04T01:04:43;99239.91;;;4.99;100.00
7962;BME280;4026;43.652;24.906;2023-03-04T01:07:10;99241.47;;;5.02;100.00
7962;BME280;4026;43.652;24.906;2023-03-04T01:09:38;99242.38;;;5.01;100.00
7962;BME280;4026;43.652;24.906;2023-03-04T01:12:05;99235.41;;;5.06;100.00
7962;BME280;4026;43.652;24.906;2023-03-04T01:14:32;99242.91;;;5.08;100.00
7962;BME280;4026;43.652;24.906;2023-03-04T01:16:59;99237.69;;;5.11;100.00
7962;BME280;4026;43.652;24.906;2023-03-04T01:19:26;99237.94;;;5.06;100.00
7962;BME280;4026;43.652;24.906;2023-03-04T01:21:53;99242.25;;;5.04;100.00
7962;BME280;4026;43.652;24.906;2023-03-04T01:24:20;99242.31;;;5.03;100.00
7962;BME280;4026;43.652;24.906;2023-03-04T01:26:48;99244.59;;;4.90;100.00
7962;BME280;4026;43.652;24.906;2023-03-04T01:29:15;99241.91;;;4.93;100.00
7962;BME280;4026;43.652;24.906;2023-03-04T01:31:42;99246.22;;;4.91;100.00
7962;BME280;4026;43.652;24.906;2023-03-04T01:34:08;99253.78;;;4.92;100.00
7962;BME280;4026;43.652;24.906;2023-03-04T01:36:35;99251.72;;;4.82;100.00
7962;BME280;4026;43.652;24.906;2023-03-04T01:39:03;99246.81;;;4.79;100.00
7962;BME280;4026;43.652;24.906;2023-03-04T01:41:30;99243.94;;;4.86;100.00
7962;BME280;4026;43.652;24.906;2023-03-04T01:43:59;99238.84;;;4.86;100.00
7962;BME280;4026;43.652;24.906;2023-03-04T01:46:28;99242.97;;;4.89;100.00
7962;BME280;4026;43.652;24.906;2023-03-04T01:48:55;99246.50;;;4.85;100.00
7962;BME280;4026;43.652;24.906;2023-03-04T01:51:23;99243.09;;;4.86;100.00
7962;BME280;4026;43.652;24.906;2023-03-04T01:53:50;99239.81;;;4.84;100.00
7962;BME280;4026;43.652;24.906;2023-03-04T01:56:22;99237.34;;;4.82;100.00
7962;BME280;4026;43.652;24.906;2023-03-04T01:59:13;99236.25;;;4.88;100.00
7962;BME280;4026;43.652;24.906;2023-03-04T02:01:43;99235.84;;;4.78;100.00
7962;BME280;4026;43.652;24.906;2023-03-04T02:04:10;99240.25;;;4.74;100.00
7962;BME280;4026;43.652;24.906;2023-03-04T02:06:39;99232.03;;;4.69;100.00
7962;BME280;4026;43.652;24.906;2023-03-04T02:09:07;99228.75;;;4.67;100.00
7962;BME280;4026;43.652;24.906;2023-03-04T02:11:35;99226.97;;;4.69;100.00
7962;BME280;4026;43.652;24.906;2023-03-04T02:14:03;99220.38;;;4.65;100.00
7962;BME280;4026;43.652;24.906;2023-03-04T02:16:32;99215.47;;;4.62;100.00
7962;BME280;4026;43.652;24.906;2023-03-04T02:18:59;99216.31;;;4.44;100.00
7962;BME280;4026;43.652;24.906;2023-03-04T02:21:28;99208.28;;;4.53;100.00
7962;BME280;4026;43.652;24.906;2023-03-04T02:24:04;99218.06;;;4.42;100.00
7962;BME280;4026;43.652;24.906;2023-03-04T02:26:35;99212.28;;;4.40;100.00
7962;BME280;4026;43.652;24.906;2023-03-04T02:29:04;99208.66;;;4.26;100.00
7962;BME280;4026;43.652;24.906;2023-03-04T02:31:33;99204.19;;;4.31;100.00
7962;BME280;4026;43.652;24.906;2023-03-04T02:34:02;99199.41;;;4.25;100.00
7962;BME280;4026;43.652;24.906;2023-03-04T02:36:31;99194.97;;;4.30;100.00
7962;BME280;4026;43.652;24.906;2023-03-04T02:39:02;99199.91;;;4.34;100.00
7962;BME280;4026;43.652;24.906;2023-03-04T02:41:30;99203.97;;;4.36;100.00
7962;BME280;4026;43.652;24.906;2023-03-04T02:43:58;99215.22;;;4.30;100.00
7962;BME280;4026;43.652;24.906;2023-03-04T02:46:25;99216.66;;;4.17;100.00
7962;BME280;4026;43.652;24.906;2023-03-04T02:48:52;99208.66;;;4.26;100.00
7962;BME280;4026;43.652;24.906;2023-03-04T02:51:20;99205.97;;;4.29;100.00
7962;BME280;4026;43.652;24.906;2023-03-04T02:53:47;99204.97;;;4.34;100.00
7962;BME280;4026;43.652;24.906;2023-03-04T02:56:14;99210.16;;;4.30;100.00
7962;BME280;4026;43.652;24.906;2023-03-04T02:58:40;99220.97;;;4.34;100.00
7962;BME280;4026;43.652;24.906;2023-03-04T03:01:09;99220.88;;;4.36;100.00
7962;BME280;4026;43.652;24.906;2023-03-04T03:03:35;99223.00;;;4.45;100.00
7962;BME280;4026;43.652;24.906;2023-03-04T03:06:03;99218.50;;;4.32;100.00
7962;BME280;4026;43.652;24.906;2023-03-04T03:08:29;99219.44;;;4.30;100.00
7962;BME280;4026;43.652;24.906;2023-03-04T03:10:56;99223.38;;;4.37;100.00
7962;BME280;4026;43.652;24.906;2023-03-04T03:13:23;99223.13;;;4.42;100.00
7962;BME280;4026;43.652;24.906;2023-03-04T03:15:50;99218.97;;;4.41;100.00
7962;BME280;4026;43.652;24.906;2023-03-04T03:18:18;99224.66;;;4.46;100.00
7962;BME280;4026;43.652;24.906;2023-03-04T03:20:45;99223.91;;;4.44;100.00
7962;BME280;4026;43.652;24.906;2023-03-04T03:23:12;99229.50;;;4.31;100.00
7962;BME280;4026;43.652;24.906;2023-03-04T03:25:39;99217.81;;;4.29;100.00
7962;BME280;4026;43.652;24.906;2023-03-04T03:28:06;99210.97;;;4.31;100.00
7962;BME280;4026;43.652;24.906;2023-03-04T03:30:33;99210.72;;;4.37;100.00
7962;BME280;4026;43.652;24.906;2023-03-04T03:32:59;99211.25;;;4.44;100.00
7962;BME280;4026;43.652;24.906;2023-03-04T03:35:28;99215.06;;;4.52;100.00
7962;BME280;4026;43.652;24.906;2023-03-04T03:37:54;99203.91;;;4.57;100.00
7962;BME280;4026;43.652;24.906;2023-03-04T03:40:21;99203.03;;;4.58;100.00
7962;BME280;4026;43.652;24.906;2023-03-04T03:42:48;99207.00;;;4.63;100.00
7962;BME280;4026;43.652;24.906;2023-03-04T03:45:15;99200.00;;;4.68;100.00
7962;BME280;4026;43.652;24.906;2023-03-04T03:47:42;99202.75;;;4.64;100.00
7962;BME280;4026;43.652;24.906;2023-03-04T03:50:10;99202.53;;;4.68;100.00
7962;BME280;4026;43.652;24.906;2023-03-04T03:52:38;99195.06;;;4.65;100.00
7962;BME280;4026;43.652;24.906;2023-03-04T03:55:05;99201.94;;;4.63;100.00
7962;BME280;4026;43.652;24.906;2023-03-04T03:57:32;99203.41;;;4.67;100.00
7962;BME280;4026;43.652;24.906;2023-03-04T03:59:59;99209.72;;;4.59;100.00
7962;BME280;4026;43.652;24.906;2023-03-04T04:02:26;99205.34;;;4.62;100.00
7962;BME280;4026;43.652;24.906;2023-03-04T04:04:53;99205.41;;;4.61;100.00
7962;BME280;4026;43.652;24.906;2023-03-04T04:07:20;99205.75;;;4.53;100.00
7962;BME280;4026;43.652;24.906;2023-03-04T04:09:48;99206.19;;;4.63;100.00
7962;BME280;4026;43.652;24.906;2023-03-04T04:12:17;99205.06;;;4.68;100.00
7962;BME280;4026;43.652;24.906;2023-03-04T04:14:44;99206.72;;;4.69;100.00
7962;BME280;4026;43.652;24.906;2023-03-04T04:17:11;99199.53;;;4.60;100.00
7962;BME280;4026;43.652;24.906;2023-03-04T04:19:40;99210.81;;;4.53;100.00
7962;BME280;4026;43.652;24.906;2023-03-04T04:22:08;99203.69;;;4.61;100.00
7962;BME280;4026;43.652;24.906;2023-03-04T04:24:39;99206.09;;;4.64;100.00
7962;BME280;4026;43.652;24.906;2023-03-04T04:27:07;99197.38;;;4.70;100.00
7962;BME280;4026;43.652;24.906;2023-03-04T04:29:34;99193.28;;;4.67;100.00
7962;BME280;4026;43.652;24.906;2023-03-04T04:32:02;99196.03;;;4.63;100.00
7962;BME280;4026;43.652;24.906;2023-03-04T04:34:29;99197.00;;;4.60;100.00
7962;BME280;4026;43.652;24.906;2023-03-04T04:36:56;99198.50;;;4.64;100.00
7962;BME280;4026;43.652;24.906;2023-03-04T04:39:23;99191.81;;;4.63;100.00
7962;BME280;4026;43.652;24.906;2023-03-04T04:41:50;99193.72;;;4.58;100.00
7962;BME280;4026;43.652;24.906;2023-03-04T04:44:18;99191.94;;;4.60;100.00
7962;BME280;4026;43.652;24.906;2023-03-04T04:46:45;99188.50;;;4.61;100.00
7962;BME280;4026;43.652;24.906;2023-03-04T04:49:12;99207.13;;;4.60;100.00
7962;BME280;4026;43.652;24.906;2023-03-04T04:51:39;99197.81;;;4.61;100.00
7962;BME280;4026;43.652;24.906;2023-03-04T04:54:06;99205.28;;;4.45;100.00
7962;BME280;4026;43.652;24.906;2023-03-04T04:56:33;99203.78;;;4.41;100.00
7962;BME280;4026;43.652;24.906;2023-03-04T04:59:01;99201.53;;;4.35;100.00
7962;BME280;4026;43.652;24.906;2023-03-04T05:01:30;99201.13;;;4.44;100.00
7962;BME280;4026;43.652;24.906;2023-03-04T05:03:57;99196.88;;;4.44;100.00
7962;BME280;4026;43.652;24.906;2023-03-04T05:06:24;99201.41;;;4.38;100.00
7962;BME280;4026;43.652;24.906;2023-03-04T05:08:51;99206.31;;;4.41;100.00
7962;BME280;4026;43.652;24.906;2023-03-04T05:11:19;99197.97;;;4.39;100.00
7962;BME280;4026;43.652;24.906;2023-03-04T05:13:46;99203.94;;;4.38;100.00
7962;BME280;4026;43.652;24.906;2023-03-04T05:16:13;99208.09;;;4.39;100.00
7962;BME280;4026;43.652;24.906;2023-03-04T05:18:42;99203.78;;;4.41;100.00
7962;BME280;4026;43.652;24.906;2023-03-04T05:21:09;99202.34;;;4.35;100.00
7962;BME280;4026;43.652;24.906;2023-03-04T05:23:38;99207.28;;;4.38;100.00
7962;BME280;4026;43.652;24.906;2023-03-04T05:26:07;99208.38;;;4.32;100.00
7962;BME280;4026;43.652;24.906;2023-03-04T05:28:34;99214.53;;;4.46;100.00
7962;BME280;4026;43.652;24.906;2023-03-04T05:31:02;99211.44;;;4.58;100.00
7962;BME280;4026;43.652;24.906;2023-03-04T05:33:29;99210.34;;;4.45;100.00
7962;BME280;4026;43.652;24.906;2023-03-04T05:35:57;99208.84;;;4.60;100.00
7962;BME280;4026;43.652;24.906;2023-03-04T05:38:24;99202.88;;;4.61;100.00
7962;BME280;4026;43.652;24.906;2023-03-04T05:40:56;99199.91;;;4.70;100.00
7962;BME280;4026;43.652;24.906;2023-03-04T05:43:24;99204.66;;;4.78;100.00
7962;BME280;4026;43.652;24.906;2023-03-04T05:45:51;99214.97;;;4.92;100.00
7962;BME280;4026;43.652;24.906;2023-03-04T05:48:17;99221.72;;;5.09;100.00
7962;BME280;4026;43.652;24.906;2023-03-04T05:50:45;99225.25;;;5.41;100.00
7962;BME280;4026;43.652;24.906;2023-03-04T05:53:13;99232.13;;;5.56;100.00
7962;BME280;4026;43.652;24.906;2023-03-04T05:55:40;99233.13;;;5.87;100.00
7962;BME280;4026;43.652;24.906;2023-03-04T05:58:11;99239.97;;;6.20;100.00
7962;BME280;4026;43.652;24.906;2023-03-04T06:00:38;99240.94;;;6.33;100.00
7962;BME280;4026;43.652;24.906;2023-03-04T06:03:05;99254.06;;;6.41;100.00
7962;BME280;4026;43.652;24.906;2023-03-04T06:05:32;99265.47;;;6.50;100.00
7962;BME280;4026;43.652;24.906;2023-03-04T06:07:59;99275.41;;;6.54;100.00
7962;BME280;4026;43.652;24.906;2023-03-04T06:10:27;99277.50;;;6.62;100.00
7962;BME280;4026;43.652;24.906;2023-03-04T06:12:54;99279.81;;;6.67;100.00
7962;BME280;4026;43.652;24.906;2023-03-04T06:15:20;99280.97;;;6.61;100.00
7962;BME280;4026;43.652;24.906;2023-03-04T06:17:47;99283.63;;;6.42;100.00
7962;BME280;4026;43.652;24.906;2023-03-04T06:20:14;99272.91;;;6.37;100.00
7962;BME280;4026;43.652;24.906;2023-03-04T06:22:41;99275.38;;;6.39;100.00
7962;BME280;4026;43.652;24.906;2023-03-04T06:25:08;99279.31;;;6.44;100.00
7962;BME280;4026;43.652;24.906;2023-03-04T06:27:37;99277.03;;;6.55;100.00
7962;BME280;4026;43.652;24.906;2023-03-04T06:30:06;99277.84;;;6.72;100.00
7962;BME280;4026;43.652;24.906;2023-03-04T06:32:33;99278.75;;;6.87;100.00
7962;BME280;4026;43.652;24.906;2023-03-04T06:35:00;99290.66;;;7.32;100.00
7962;BME280;4026;43.652;24.906;2023-03-04T06:37:27;99298.06;;;7.81;100.00
7962;BME280;4026;43.652;24.906;2023-03-04T06:39:54;99290.75;;;8.34;100.00
7962;BME280;4026;43.652;24.906;2023-03-04T06:42:21;99301.19;;;8.72;100.00
7962;BME280;4026;43.652;24.906;2023-03-04T06:44:49;99289.00;;;8.77;100.00
7962;BME280;4026;43.652;24.906;2023-03-04T06:47:16;99301.28;;;9.12;100.00
7962;BME280;4026;43.652;24.906;2023-03-04T06:49:43;99305.28;;;9.56;100.00
7962;BME280;4026;43.652;24.906;2023-03-04T06:52:10;99303.09;;;9.90;100.00
7962;BME280;4026;43.652;24.906;2023-03-04T06:54:37;99301.13;;;9.55;100.00
7962;BME280;4026;43.652;24.906;2023-03-04T06:57:05;99299.19;;;9.04;100.00
7962;BME280;4026;43.652;24.906;2023-03-04T06:59:32;99308.56;;;9.58;100.00
7962;BME280;4026;43.652;24.906;2023-03-04T07:02:00;99309.03;;;10.03;100.00
7962;BME280;4026;43.652;24.906;2023-03-04T07:04:27;99304.16;;;10.38;100.00
7962;BME280;4026;43.652;24.906;2023-03-04T07:06:54;99298.09;;;10.89;100.00
7962;BME280;4026;43.652;24.906;2023-03-04T07:09:21;99292.88;;;11.15;100.00
7962;BME280;4026;43.652;24.906;2023-03-04T07:11:47;99285.59;;;10.97;100.00
7962;BME280;4026;43.652;24.906;2023-03-04T07:14:14;99285.88;;;11.41;100.00
7962;BME280;4026;43.652;24.906;2023-03-04T07:16:41;99288.91;;;11.35;100.00
7962;BME280;4026;43.652;24.906;2023-03-04T07:19:09;99287.06;;;10.39;100.00
7962;BME280;4026;43.652;24.906;2023-03-04T07:21:36;99288.78;;;10.26;100.00
7962;BME280;4026;43.652;24.906;2023-03-04T07:24:04;99287.78;;;10.78;100.00
7962;BME280;4026;43.652;24.906;2023-03-04T07:26:31;99275.34;;;10.97;100.00
7962;BME280;4026;43.652;24.906;2023-03-04T07:28:57;99285.28;;;10.52;100.00
7962;BME280;4026;43.652;24.906;2023-03-04T07:31:43;99282.59;;;10.67;100.00
7962;BME280;4026;43.652;24.906;2023-03-04T07:34:13;99280.16;;;10.65;100.00
7962;BME280;4026;43.652;24.906;2023-03-04T07:36:40;99270.91;;;10.75;100.00
7962;BME280;4026;43.652;24.906;2023-03-04T07:39:07;99275.41;;;10.35;100.00
7962;BME280;4026;43.652;24.906;2023-03-04T07:41:35;99275.31;;;9.72;100.00
7962;BME280;4026;43.652;24.906;2023-03-04T07:44:03;99269.50;;;9.30;100.00
7962;BME280;4026;43.652;24.906;2023-03-04T07:46:31;99267.25;;;9.26;100.00
7962;BME280;4026;43.652;24.906;2023-03-04T07:48:58;99267.41;;;8.83;100.00
7962;BME280;4026;43.652;24.906;2023-03-04T07:51:26;99268.47;;;8.93;100.00
7962;BME280;4026;43.652;24.906;2023-03-04T07:53:56;99265.69;;;9.63;100.00
7962;BME280;4026;43.652;24.906;2023-03-04T07:56:24;99268.97;;;9.91;100.00
7962;BME280;4026;43.652;24.906;2023-03-04T07:58:52;99269.16;;;9.62;100.00
7962;BME280;4026;43.652;24.906;2023-03-04T08:01:21;99257.94;;;9.52;100.00
7962;BME280;4026;43.652;24.906;2023-03-04T08:03:48;99264.06;;;9.75;100.00
7962;BME280;4026;43.652;24.906;2023-03-04T08:06:16;99263.84;;;10.16;100.00
7962;BME280;4026;43.652;24.906;2023-03-04T08:08:46;99266.72;;;9.73;100.00
7962;BME280;4026;43.652;24.906;2023-03-04T08:11:14;99259.34;;;9.43;100.00
7962;BME280;4026;43.652;24.906;2023-03-04T08:13:42;99255.47;;;9.89;100.00
7962;BME280;4026;43.652;24.906;2023-03-04T08:16:11;99251.78;;;10.44;100.00
7962;BME280;4026;43.652;24.906;2023-03-04T08:18:40;99254.16;;;10.71;100.00
7962;BME280;4026;43.652;24.906;2023-03-04T08:21:08;99255.16;;;11.41;100.00
7962;BME280;4026;43.652;24.906;2023-03-04T08:23:35;99260.53;;;11.49;100.00
7962;BME280;4026;43.652;24.906;2023-03-04T08:26:06;99254.97;;;11.66;100.00
7962;BME280;4026;43.652;24.906;2023-03-04T08:28:33;99250.56;;;11.68;100.00
7962;BME280;4026;43.652;24.906;2023-03-04T08:31:00;99246.75;;;12.53;100.00
7962;BME280;4026;43.652;24.906;2023-03-04T08:33:27;99253.63;;;13.07;96.64
7962;BME280;4026;43.652;24.906;2023-03-04T08:35:54;99242.97;;;12.79;94.57
7962;BME280;4026;43.652;24.906;2023-03-04T08:38:21;99241.38;;;12.56;98.45
7962;BME280;4026;43.652;24.906;2023-03-04T08:40:51;99250.84;;;12.99;100.00
7962;BME280;4026;43.652;24.906;2023-03-04T08:43:20;99241.72;;;13.38;94.35
7962;BME280;4026;43.652;24.906;2023-03-04T08:45:47;99246.78;;;13.17;96.00
7962;BME280;4026;43.652;24.906;2023-03-04T08:48:15;99249.38;;;12.74;98.06
7962;BME280;4026;43.652;24.906;2023-03-04T08:50:42;99245.63;;;12.45;97.03
7962;BME280;4026;43.652;24.906;2023-03-04T08:53:09;99241.66;;;12.30;100.00
7962;BME280;4026;43.652;24.906;2023-03-04T08:55:37;99242.44;;;12.97;100.00
7962;BME280;4026;43.652;24.906;2023-03-04T08:58:05;99244.06;;;13.93;95.74
7962;BME280;4026;43.652;24.906;2023-03-04T09:00:33;99236.88;;;13.24;92.02
7962;BME280;4026;43.652;24.906;2023-03-04T09:03:01;99235.06;;;12.71;94.58
7962;BME280;4026;43.652;24.906;2023-03-04T09:05:28;99238.41;;;12.06;95.77
7962;BME280;4026;43.652;24.906;2023-03-04T09:07:55;99232.03;;;11.53;100.00
7962;BME280;4026;43.652;24.906;2023-03-04T09:10:23;99237.69;;;11.92;100.00
7962;BME280;4026;43.652;24.906;2023-03-04T09:12:50;99224.88;;;11.92;100.00
7962;BME280;4026;43.652;24.906;2023-03-04T09:15:17;99223.03;;;12.06;100.00
7962;BME280;4026;43.652;24.906;2023-03-04T09:17:45;99220.81;;;12.78;96.95
7962;BME280;4026;43.652;24.906;2023-03-04T09:20:12;99222.81;;;13.07;95.08
7962;BME280;4026;43.652;24.906;2023-03-04T09:22:40;99218.84;;;13.03;92.45
7962;BME280;4026;43.652;24.906;2023-03-04T09:25:09;99222.28;;;13.24;95.20
7962;BME280;4026;43.652;24.906;2023-03-04T09:27:37;99220.41;;;13.26;94.47
7962;BME280;4026;43.652;24.906;2023-03-04T09:30:04;99213.16;;;12.67;92.30
7962;BME280;4026;43.652;24.906;2023-03-04T09:32:32;99212.38;;;12.55;92.97
7962;BME280;4026;43.652;24.906;2023-03-04T09:35:00;99212.66;;;12.73;97.65
7962;BME280;4026;43.652;24.906;2023-03-04T09:37:27;99210.72;;;12.98;95.81
7962;BME280;4026;43.652;24.906;2023-03-04T09:39:54;99206.94;;;13.34;93.64
7962;BME280;4026;43.652;24.906;2023-03-04T09:42:24;99205.75;;;13.59;93.20
7962;BME280;4026;43.652;24.906;2023-03-04T09:44:53;99210.16;;;14.09;86.89
7962;BME280;4026;43.652;24.906;2023-03-04T09:47:22;99202.44;;;14.49;85.50
7962;BME280;4026;43.652;24.906;2023-03-04T09:49:54;99195.25;;;15.40;87.86
7962;BME280;4026;43.652;24.906;2023-03-04T09:52:32;99196.81;;;16.35;82.13
7962;BME280;4026;43.652;24.906;2023-03-04T09:55:15;99187.69;;;15.86;81.14
7962;BME280;4026;43.652;24.906;2023-03-04T09:57:48;99198.31;;;15.73;81.13
7962;BME280;4026;43.652;24.906;2023-03-04T10:00:21;99188.09;;;14.95;85.21
7962;BME280;4026;43.652;24.906;2023-03-04T10:03:03;99198.09;;;15.94;85.61
7962;BME280;4026;43.652;24.906;2023-03-04T10:05:32;99185.63;;;15.89;82.82
7962;BME280;4026;43.652;24.906;2023-03-04T10:08:11;99177.78;;;16.36;85.13
7962;BME280;4026;43.652;24.906;2023-03-04T10:10:44;99180.63;;;16.96;80.52
7962;BME280;4026;43.652;24.906;2023-03-04T10:13:17;99180.94;;;15.75;80.37
7962;BME280;4026;43.652;24.906;2023-03-04T10:15:47;99173.09;;;14.90;80.99
7962;BME280;4026;43.652;24.906;2023-03-04T10:18:19;99172.00;;;14.93;83.21
7962;BME280;4026;43.652;24.906;2023-03-04T10:21:02;99159.19;;;14.23;81.39
7962;BME280;4026;43.652;24.906;2023-03-04T10:23:33;99155.66;;;14.24;86.16
7962;BME280;4026;43.652;24.906;2023-03-04T10:26:11;99154.94;;;15.02;85.27
7962;BME280;4026;43.652;24.906;2023-03-04T10:28:38;99155.50;;;14.66;84.22
7962;BME280;4026;43.652;24.906;2023-03-04T10:31:11;99148.44;;;14.59;81.38
7962;BME280;4026;43.652;24.906;2023-03-04T10:33:40;99146.50;;;15.00;82.07
7962;BME280;4026;43.652;24.906;2023-03-04T10:36:24;99142.94;;;15.77;83.04
7962;BME280;4026;43.652;24.906;2023-03-04T10:39:01;99137.00;;;16.22;83.43
7962;BME280;4026;43.652;24.906;2023-03-04T10:41:29;99139.00;;;16.28;82.68
7962;BME280;4026;43.652;24.906;2023-03-04T10:44:01;99137.25;;;16.46;75.10
7962;BME280;4026;43.652;24.906;2023-03-04T10:46:29;99125.28;;;15.45;78.75
7962;BME280;4026;43.652;24.906;2023-03-04T10:48:56;99126.41;;;15.70;77.43
7962;BME280;4026;43.652;24.906;2023-03-04T10:51:25;99111.81;;;15.88;78.74
7962;BME280;4026;43.652;24.906;2023-03-04T10:53:56;99122.00;;;16.07;75.43
7962;BME280;4026;43.652;24.906;2023-03-04T10:56:34;99103.06;;;15.34;74.79
7962;BME280;4026;43.652;24.906;2023-03-04T11:02:26;99095.34;;;15.71;78.39
7962;BME280;4026;43.652;24.906;2023-03-04T11:05:06;99085.00;;;15.81;77.94
7962;BME280;4026;43.652;24.906;2023-03-04T11:07:38;99082.78;;;15.86;73.39
7962;BME280;4026;43.652;24.906;2023-03-04T11:10:10;99085.03;;;16.35;77.31
7962;BME280;4026;43.652;24.906;2023-03-04T11:12:38;99075.94;;;15.39;74.47
7962;BME280;4026;43.652;24.906;2023-03-04T11:15:17;99074.09;;;15.12;78.14
7962;BME280;4026;43.652;24.906;2023-03-04T11:17:47;99071.19;;;15.72;76.97
7962;BME280;4026;43.652;24.906;2023-03-04T11:20:22;99069.31;;;16.46;76.50
7962;BME280;4026;43.652;24.906;2023-03-04T11:22:51;99069.75;;;16.05;75.53
7962;BME280;4026;43.652;24.906;2023-03-04T11:25:24;99065.25;;;16.43;73.30
7962;BME280;4026;43.652;24.906;2023-03-04T11:27:55;99068.34;;;15.93;75.00
7962;BME280;4026;43.652;24.906;2023-03-04T11:30:37;99071.59;;;15.95;72.46
7962;BME280;4026;43.652;24.906;2023-03-04T11:33:12;99059.09;;;16.00;71.96
7962;BME280;4026;43.652;24.906;2023-03-04T11:35:46;99056.97;;;14.93;77.47
7962;BME280;4026;43.652;24.906;2023-03-04T11:38:17;99049.75;;;14.97;80.69
7962;BME280;4026;43.652;24.906;2023-03-04T11:40:47;99051.53;;;14.97;78.79
7962;BME280;4026;43.652;24.906;2023-03-04T11:43:19;99042.72;;;14.99;78.92
7962;BME280;4026;43.652;24.906;2023-03-04T11:46:00;99046.69;;;15.31;74.95
7962;BME280;4026;43.652;24.906;2023-03-04T11:48:44;99043.44;;;15.29;77.16
7962;BME280;4026;43.652;24.906;2023-03-04T11:51:20;99038.84;;;15.23;77.71
7962;BME280;4026;43.652;24.906;2023-03-04T11:54:09;99043.75;;;14.20;76.68
7962;BME280;4026;43.652;24.906;2023-03-04T11:56:42;99041.38;;;13.78;80.26
7962;BME280;4026;43.652;24.906;2023-03-04T11:59:40;99028.84;;;13.95;78.83
7962;BME280;4026;43.652;24.906;2023-03-04T12:02:14;99038.75;;;14.29;78.71
7962;BME280;4026;43.652;24.906;2023-03-04T12:05:20;99029.69;;;15.10;76.79
7962;BME280;4026;43.652;24.906;2023-03-04T12:10:41;99023.88;;;15.36;78.02
7962;BME280;4026;43.652;24.906;2023-03-04T12:13:45;99018.91;;;15.52;75.72
7962;BME280;4026;43.652;24.906;2023-03-04T12:16:33;99017.28;;;15.51;75.80
7962;BME280;4026;43.652;24.906;2023-03-04T12:19:19;99021.28;;;15.08;75.19
7962;BME280;4026;43.652;24.906;2023-03-04T12:21:58;99009.25;;;15.36;78.26
7962;BME280;4026;43.652;24.906;2023-03-04T12:24:43;99010.00;;;15.09;75.46
7962;BME280;4026;43.652;24.906;2023-03-04T12:27:22;99013.16;;;15.58;74.01
7962;BME280;4026;43.652;24.906;2023-03-04T12:29:56;98999.69;;;15.74;74.42
7962;BME280;4026;43.652;24.906;2023-03-04T12:32:35;99007.94;;;16.14;72.14
7962;BME280;4026;43.652;24.906;2023-03-04T12:35:23;99011.50;;;16.13;72.86
7962;BME280;4026;43.652;24.906;2023-03-04T12:38:04;99003.84;;;15.57;73.72
7962;BME280;4026;43.652;24.906;2023-03-04T12:40:43;98996.72;;;15.42;73.54
7962;BME280;4026;43.652;24.906;2023-03-04T12:46:11;98984.09;;;15.21;77.05
7962;BME280;4026;43.652;24.906;2023-03-04T12:48:50;98976.91;;;15.70;73.64
7962;BME280;4026;43.652;24.906;2023-03-04T12:51:29;98978.56;;;15.61;73.81
7962;BME280;4026;43.652;24.906;2023-03-04T12:54:15;98965.56;;;15.35;79.72
7962;BME280;4026;43.652;24.906;2023-03-04T12:56:49;98964.69;;;15.44;77.68
7962;BME280;4026;43.652;24.906;2023-03-04T12:59:19;98971.22;;;14.83;78.42
7962;BME280;4026;43.652;24.906;2023-03-04T13:01:52;98954.13;;;14.92;77.78
7962;BME280;4026;43.652;24.906;2023-03-04T13:04:26;98965.81;;;14.77;78.55
7962;BME280;4026;43.652;24.906;2023-03-04T13:07:07;98959.91;;;14.66;78.38
7962;BME280;4026;43.652;24.906;2023-03-04T13:09:42;98949.06;;;14.63;79.96
7962;BME280;4026;43.652;24.906;2023-03-04T13:12:14;98944.38;;;14.86;72.54
7962;BME280;4026;43.652;24.906;2023-03-04T13:15:15;98950.16;;;14.70;74.69
7962;BME280;4026;43.652;24.906;2023-03-04T13:17:45;98938.81;;;14.34;76.36
7962;BME280;4026;43.652;24.906;2023-03-04T13:20:30;98936.66;;;14.58;76.96
7962;BME280;4026;43.652;24.906;2023-03-04T13:22:58;98934.19;;;14.66;79.06
7962;BME280;4026;43.652;24.906;2023-03-04T13:25:40;98932.06;;;14.89;77.86
7962;BME280;4026;43.652;24.906;2023-03-04T13:28:15;98929.22;;;14.92;75.66
7962;BME280;4026;43.652;24.906;2023-03-04T13:34:03;98919.84;;;14.54;76.78
7962;BME280;4026;43.652;24.906;2023-03-04T13:36:57;98918.03;;;14.17;78.56